Pagrindinis puslapis
METAR-TAF:

METAR-TAF

Oro uostai :

Cayo Coco, Kuba

platuma: 22-27-40N, ilguma: 078-19-42W, Aukštis: 4 m

Dabartinis oras

Ataskaita buvo paskelbta 28 minutes, ne 23:50 UTC
Vėjas 8 kt iš Rytų/Pietryčių
Temperatūra 30°C
Drėgmė 79%
Slėgis 1018 hPa
Matomumas: 9000 m
Išsisklaidę debesys ne aukštis 2000 ft

METAR: MUCC 012350Z 12008KT 9000 SCT020 30/26 Q1018

Laikas: 20:18 (00:18 UTC)

Prognozė

Ataskaita buvo paskelbta 1 valandą ir 18 minutes, ne 23:00 UTC
Prognozė galioja nuo 02 metu 00 UTC su 02 metu 24 UTC
Vėjas 10 kt iš Rytų
Matomumas: 9000 m
Išsisklaidę debesys ne aukštis 2000 ft

TAF: MUCC 012300Z 0200/0224 08010KT 9000 SCT020

Orai ataskaitas ir orų prognozės (METAR, TAF).

turimą stotys yra geltonos ir raudonos taškus žemėlapyje.

Perkelti pele per norėdami pamatyti stoties vardą.

Tada spustelėkite, norėdami matyti oro stebėjimo ir prognozės.

Norėdami pakeisti žemėlapį: spustelėkite ant žalios mygtukų su juodo kryžiaus žemyn,; žalią mygtuką su brūkšneliu, jei norite nutolinti; arba žalių rodyklių gretimoms žemėlapius.


METAR-TAF: